Terminal Aerodrome Forecast
Issued by NWS North Platte, NE

Home | Current Version | Previous Version | Graphics & Text | Print | Product List | Glossary On
Versions: 1 2 3 4 5 6 7 8 9 10 11 12 13 14 15 16 17 18 19 20 21 22 23 24 25
204
FTUS43 KLBF 262328
TAFVTN
TAF
KVTN 262328Z 2700/2724 01008KT 3SM BR SCT007 OVC015
     FM270500 36012KT 5SM BR VCSH OVC007
     FM271000 01017G25KT 3SM -SHRA OVC007
     FM271800 35020G28KT 5SM BR VCSH OVC007=

USA.gov is the U.S. government's official web portal to all federal, state and local government web resources and services.